createdAt,value
2022-09-21T00:00:38.057Z,0.85
2022-09-21T00:05:39.698Z,0.50
2022-09-21T00:10:41.411Z,0.70
2022-09-21T00:15:43.094Z,0.32
2022-09-21T00:20:44.818Z,0.40
2022-09-21T00:25:46.621Z,0.40
2022-09-21T00:30:48.298Z,0.50
2022-09-21T00:35:49.983Z,0.40
2022-09-21T00:40:51.663Z,0.38
2022-09-21T00:46:12.596Z,0.53
2022-09-21T00:51:14.571Z,0.40
2022-09-21T00:56:16.625Z,0.20
2022-09-21T01:01:19.336Z,0.55
2022-09-21T01:06:21.559Z,0.30
2022-09-21T01:11:33.793Z,0.28
2022-09-21T01:16:47.581Z,0.30
2022-09-21T01:22:06.960Z,0.25
2022-09-21T01:27:21.302Z,0.22
2022-09-21T01:32:28.300Z,0.20
2022-09-21T01:37:45.187Z,0.20
2022-09-21T01:42:48.805Z,0.35
2022-09-21T01:47:51.527Z,0.30
2022-09-21T01:53:02.240Z,0.35
2022-09-21T01:58:11.434Z,0.40
2022-09-21T02:03:21.147Z,0.68
2022-09-21T02:08:24.354Z,0.57
2022-09-21T02:13:29.235Z,0.50
2022-09-21T02:18:48.511Z,0.52
2022-09-21T02:23:58.277Z,0.80
2022-09-21T02:29:14.488Z,0.70
2022-09-21T02:34:31.980Z,0.60
2022-09-21T02:39:42.817Z,0.70
2022-09-21T02:44:52.686Z,0.95
2022-09-21T02:49:59.887Z,0.40
2022-09-21T02:55:03.631Z,0.60
2022-09-21T03:00:06.630Z,0.70
2022-09-21T03:05:09.296Z,0.90
2022-09-21T03:10:11.028Z,0.85
2022-09-21T03:15:12.700Z,0.45
2022-09-21T03:20:14.533Z,0.45
2022-09-21T03:25:16.193Z,0.43
2022-09-21T03:30:17.926Z,1.10
2022-09-21T03:35:24.455Z,0.52
2022-09-21T03:40:26.894Z,0.60
2022-09-21T03:45:28.613Z,0.60
2022-09-21T03:50:30.503Z,0.47
2022-09-21T03:55:32.794Z,0.43
2022-09-21T04:00:34.834Z,0.27
2022-09-21T04:05:38.388Z,0.35
2022-09-21T04:10:40.065Z,0.30
2022-09-21T04:15:41.821Z,0.30
2022-09-21T04:20:43.589Z,0.47
2022-09-21T04:25:46.039Z,0.57
2022-09-21T04:30:47.782Z,0.20
2022-09-21T04:35:54.989Z,0.10
2022-09-21T04:40:57.777Z,0.20
2022-09-21T04:46:04.074Z,0.50
2022-09-21T04:51:06.168Z,0.20
2022-09-21T04:56:09.649Z,0.20
2022-09-21T05:01:11.382Z,0.60
2022-09-21T05:06:13.234Z,0.13
2022-09-21T05:11:17.304Z,0.05
2022-09-21T05:16:19.620Z,0.20
2022-09-21T05:21:21.519Z,0.10
2022-09-21T05:26:23.535Z,0.15
2022-09-21T05:31:42.295Z,0.17
2022-09-21T05:36:51.785Z,0.30
2022-09-21T05:41:53.742Z,0.20
2022-09-21T05:47:13.566Z,0.13
2022-09-21T05:52:46.136Z,0.10
2022-09-21T05:58:09.093Z,0.30
2022-09-21T06:03:27.150Z,0.20
2022-09-21T06:08:29.115Z,0.10
2022-09-21T06:13:30.851Z,0.10
2022-09-21T06:18:36.389Z,0.40
2022-09-21T06:23:38.257Z,0.38
2022-09-21T06:28:40.311Z,0.33
2022-09-21T06:33:46.120Z,0.20
2022-09-21T06:38:49.634Z,0.30
2022-09-21T06:43:54.683Z,0.20
2022-09-21T06:48:56.478Z,0.10
2022-09-21T06:53:58.731Z,0.37
2022-09-21T06:59:00.426Z,0.30
2022-09-21T07:04:02.229Z,0.40
2022-09-21T07:14:25.795Z,0.57
2022-09-21T07:19:27.483Z,0.55
2022-09-21T07:24:29.266Z,0.30
2022-09-21T07:29:30.968Z,0.20
2022-09-21T07:34:36.491Z,0.70
2022-09-21T07:39:38.291Z,0.30
2022-09-21T07:44:39.964Z,0.40
2022-09-21T07:49:42.106Z,0.40
2022-09-21T07:54:43.798Z,0.40
2022-09-21T07:59:45.810Z,0.20
2022-09-21T08:04:47.475Z,0.30
2022-09-21T08:09:49.182Z,0.17
2022-09-21T08:14:50.825Z,0.20
2022-09-21T08:19:52.470Z,0.17
2022-09-21T08:24:54.151Z,0.20
2022-09-21T08:29:55.861Z,0.30
2022-09-21T08:34:57.675Z,0.30
2022-09-21T08:39:59.406Z,0.10
2022-09-21T08:45:14.307Z,0.30
2022-09-21T08:50:22.170Z,0.60
2022-09-21T08:55:23.980Z,0.45
2022-09-21T09:00:25.686Z,0.40
2022-09-21T09:05:39.330Z,0.50
2022-09-21T09:10:54.570Z,0.30
2022-09-21T09:16:27.933Z,0.20
2022-09-21T09:21:37.970Z,0.40
2022-09-21T09:26:48.416Z,0.10
2022-09-21T09:31:52.465Z,0.30
2022-09-21T09:37:05.533Z,0.30
2022-09-21T09:42:25.030Z,0.17
2022-09-21T09:47:48.445Z,0.10
2022-09-21T09:52:53.080Z,0.15
2022-09-21T09:57:56.224Z,0.30
2022-09-21T10:02:59.092Z,0.20
2022-09-21T10:08:01.347Z,0.40
2022-09-21T10:13:21.826Z,0.20
2022-09-21T10:18:39.885Z,0.50
2022-09-21T10:24:06.020Z,0.40
2022-09-21T10:29:38.577Z,0.17
2022-09-21T10:35:01.016Z,0.30
2022-09-21T10:40:03.672Z,0.10
2022-09-21T10:45:15.399Z,0.30
2022-09-21T10:50:37.646Z,0.30
2022-09-21T10:55:58.545Z,0.20
2022-09-21T11:01:20.753Z,0.30
2022-09-21T11:06:31.635Z,0.30
2022-09-21T11:11:52.147Z,0.40
2022-09-21T11:17:09.148Z,0.20
2022-09-21T11:22:40.710Z,0.20
2022-09-21T11:27:46.197Z,0.20
2022-09-21T11:33:35.144Z,0.20
2022-09-21T11:38:39.868Z,0.45
2022-09-21T11:44:09.904Z,0.30
2022-09-21T11:49:41.890Z,0.20
2022-09-21T11:55:17.585Z,0.50
2022-09-21T12:00:23.894Z,0.10
2022-09-21T12:05:35.344Z,0.28
2022-09-21T12:10:39.412Z,0.30
2022-09-21T12:16:14.983Z,0.35
2022-09-21T12:21:34.041Z,0.20
2022-09-21T12:26:42.415Z,0.20
2022-09-21T12:31:47.827Z,0.40
2022-09-21T12:37:16.640Z,0.10
2022-09-21T12:42:28.692Z,0.10
2022-09-21T12:48:04.149Z,0.13
2022-09-21T12:53:06.805Z,0.17
2022-09-21T12:58:39.536Z,0.10
2022-09-21T13:04:19.579Z,0.27
2022-09-21T13:09:23.211Z,0.20
2022-09-21T13:14:31.380Z,0.20
2022-09-21T13:19:35.553Z,0.20
2022-09-21T13:24:37.374Z,0.10
2022-09-21T13:29:39.271Z,0.10
2022-09-21T13:34:43.064Z,0.30
2022-09-21T13:40:14.666Z,0.20
2022-09-21T13:45:16.411Z,0.35
2022-09-21T13:50:32.846Z,0.30
2022-09-21T13:55:41.387Z,0.30
2022-09-21T14:01:02.345Z,0.20
2022-09-21T14:06:12.813Z,0.40
2022-09-21T14:11:23.757Z,0.20
2022-09-21T14:16:51.789Z,0.20
2022-09-21T14:22:05.878Z,0.20
2022-09-21T14:27:22.662Z,0.30
2022-09-21T14:32:28.229Z,0.10
2022-09-21T14:37:33.614Z,0.20
2022-09-21T14:42:39.644Z,0.32
2022-09-21T14:48:00.933Z,0.50
2022-09-21T14:53:02.664Z,0.17
2022-09-21T14:58:22.531Z,0.27
2022-09-21T15:03:30.161Z,0.40
2022-09-21T15:09:30.684Z,0.20
2022-09-21T15:14:32.316Z,0.10
2022-09-21T15:19:36.560Z,0.20
2022-09-21T15:24:58.119Z,0.40
2022-09-21T15:30:02.714Z,0.22
2022-09-21T15:35:07.791Z,0.20
2022-09-21T15:40:18.331Z,0.32
2022-09-21T15:45:20.120Z,0.10
2022-09-21T15:50:22.578Z,0.20
2022-09-21T15:55:24.582Z,0.10
2022-09-21T16:00:32.528Z,0.10
2022-09-21T16:05:46.944Z,0.20
2022-09-21T16:10:49.431Z,0.20
2022-09-21T16:16:02.111Z,0.13
2022-09-21T16:21:32.302Z,0.50
2022-09-21T16:26:39.482Z,0.13
2022-09-21T16:31:42.526Z,0.20
2022-09-21T16:36:52.011Z,0.20
2022-09-21T16:42:01.020Z,0.30
2022-09-21T16:47:03.528Z,0.20
2022-09-21T16:52:05.345Z,0.20
2022-09-21T16:57:07.057Z,0.20
2022-09-21T17:02:11.033Z,0.10
2022-09-21T17:07:13.840Z,0.30
2022-09-21T17:12:17.649Z,0.30
2022-09-21T17:17:25.705Z,0.25
2022-09-21T17:22:27.571Z,0.40
2022-09-21T17:27:29.269Z,0.70
2022-09-21T17:32:33.192Z,0.63
2022-09-21T17:37:38.217Z,0.38
2022-09-21T17:42:42.115Z,0.40
2022-09-21T17:47:43.984Z,0.40
2022-09-21T17:52:46.058Z,0.40
2022-09-21T17:58:13.940Z,0.60
2022-09-21T18:03:25.613Z,0.60
2022-09-21T18:08:32.822Z,0.50
2022-09-21T18:14:11.462Z,0.70
2022-09-21T18:19:50.758Z,0.60
2022-09-21T18:24:55.740Z,0.40
2022-09-21T18:29:57.616Z,0.50
2022-09-21T18:35:16.639Z,0.77
2022-09-21T18:40:18.345Z,1.10
2022-09-21T18:45:29.539Z,0.68
2022-09-21T18:50:47.953Z,1.00
2022-09-21T18:55:49.985Z,0.82
2022-09-21T19:00:52.375Z,0.60
2022-09-21T19:06:18.757Z,0.73
2022-09-21T19:11:37.932Z,0.98
2022-09-21T19:17:05.343Z,0.60
2022-09-21T19:22:26.216Z,0.52
2022-09-21T19:28:06.706Z,0.73
2022-09-21T19:33:48.801Z,0.90
2022-09-21T19:38:51.092Z,0.85
2022-09-21T19:44:31.219Z,1.08
2022-09-21T19:49:45.856Z,0.70
2022-09-21T19:54:47.875Z,0.90
2022-09-21T19:59:49.840Z,0.90
2022-09-21T20:05:08.422Z,0.60
2022-09-21T20:10:36.746Z,0.70
2022-09-21T20:15:46.264Z,0.68
2022-09-21T20:20:48.032Z,0.60
2022-09-21T20:25:58.279Z,0.50
2022-09-21T20:30:59.988Z,0.63
2022-09-21T20:36:02.013Z,0.80
2022-09-21T20:41:03.736Z,0.50
2022-09-21T20:46:06.008Z,0.52
2022-09-21T20:51:07.704Z,0.77
2022-09-21T20:56:09.362Z,0.63
2022-09-21T21:01:11.062Z,0.98
2022-09-21T21:06:15.102Z,1.20
2022-09-21T21:11:16.786Z,1.05
2022-09-21T21:16:18.488Z,1.00
2022-09-21T21:21:20.363Z,0.70
2022-09-21T21:26:38.104Z,0.87
2022-09-21T21:31:44.190Z,0.98
2022-09-21T21:36:45.890Z,0.60
2022-09-21T21:41:47.708Z,0.50
2022-09-21T21:46:49.407Z,0.70
2022-09-21T21:51:52.104Z,0.55
2022-09-21T21:56:54.265Z,0.80
2022-09-21T22:01:56.034Z,0.53
2022-09-21T22:06:57.887Z,0.50
2022-09-21T22:11:59.579Z,0.60
2022-09-21T22:17:01.277Z,0.57
2022-09-21T22:22:02.939Z,0.60
2022-09-21T22:27:04.707Z,0.63
2022-09-21T22:32:06.483Z,0.50
2022-09-21T22:37:08.160Z,0.83
2022-09-21T22:42:12.812Z,0.50
2022-09-21T22:47:14.484Z,0.50
2022-09-21T22:52:16.176Z,0.52
2022-09-21T22:57:17.835Z,0.60
2022-09-21T23:02:19.501Z,0.68
2022-09-21T23:07:21.199Z,0.30
2022-09-21T23:12:23.057Z,0.70
2022-09-21T23:17:24.727Z,0.30
2022-09-21T23:22:26.417Z,0.60
2022-09-21T23:27:28.535Z,0.50
2022-09-21T23:32:30.225Z,0.40
2022-09-21T23:37:31.915Z,0.90
2022-09-21T23:42:33.563Z,0.60
2022-09-21T23:47:35.280Z,0.50
2022-09-21T23:52:36.981Z,0.47
2022-09-21T23:57:38.639Z,0.20
